Time,TemperatureF,DewpointF,PressureIn,WindDirection,WindDirectionDegrees,WindSpeedMPH,WindSpeedGustMPH,Humidity,HourlyPrecipIn,Conditions,Clouds,dailyrainin,SoftwareType,DateUTC
2013-01-10 00:00:00,43.9,28.8,30.31,West,265,7.0,18.0,55,0.00,,---,0.01,VWS V14.01,2013-01-10 05:00:00,
2013-01-10 00:01:00,43.9,28.8,30.31,WNW,299,11.0,14.0,55,0.00,,---,0.00,VWS V14.01,2013-01-10 05:01:00,
2013-01-10 00:06:00,43.9,28.4,30.31,WNW,289,6.0,11.0,54,0.00,,---,0.00,VWS V14.01,2013-01-10 05:06:00,
2013-01-10 00:11:00,43.8,28.7,30.31,NW,305,4.0,5.0,55,0.00,,---,0.00,VWS V14.01,2013-01-10 05:11:00,
2013-01-10 00:16:00,43.6,28.5,30.32,West,279,14.0,20.0,55,0.00,,---,0.00,VWS V14.01,2013-01-10 05:16:00,
2013-01-10 00:21:00,43.5,28.4,30.32,NW,310,3.0,10.0,55,0.00,,---,0.00,VWS V14.01,2013-01-10 05:21:00,
2013-01-10 00:26:00,43.5,28.0,30.32,West,270,5.0,6.0,54,0.00,,---,0.00,VWS V14.01,2013-01-10 05:26:00,
2013-01-10 00:31:00,43.3,28.2,30.33,NNW,333,6.0,12.0,55,0.00,,---,0.00,VWS V14.01,2013-01-10 05:31:00,
2013-01-10 00:36:00,43.2,28.1,30.33,NW,318,4.0,11.0,55,0.00,,---,0.00,VWS V14.01,2013-01-10 05:36:00,
2013-01-10 00:41:00,43.1,28.0,30.33,WNW,286,0.0,0.0,55,0.00,,---,0.00,VWS V14.01,2013-01-10 05:41:00,
2013-01-10 00:46:00,42.9,27.9,30.33,WNW,282,3.0,9.0,55,0.00,,---,0.00,VWS V14.01,2013-01-10 05:46:00,
2013-01-10 00:51:00,42.9,27.4,30.33,West,280,0.0,4.0,54,0.00,,---,0.00,VWS V14.01,2013-01-10 05:51:00,
2013-01-10 00:56:00,42.9,27.9,30.33,West,275,6.0,9.0,55,0.00,,---,0.00,VWS V14.01,2013-01-10 05:56:00,
2013-01-10 01:01:00,42.8,27.3,30.33,WNW,289,0.0,2.0,54,0.00,,---,0.00,VWS V14.01,2013-01-10 06:01:00,
2013-01-10 01:06:00,42.8,27.3,30.33,NW,310,3.0,13.0,54,0.00,,---,0.00,VWS V14.01,2013-01-10 06:06:00,
2013-01-10 01:11:00,42.8,27.3,30.33,West,274,1.0,3.0,54,0.00,,---,0.00,VWS V14.01,2013-01-10 06:11:00,
2013-01-10 01:16:00,42.8,27.3,30.35,West,272,5.0,7.0,54,0.00,,---,0.00,VWS V14.01,2013-01-10 06:16:00,
2013-01-10 01:21:00,42.8,26.9,30.35,WNW,302,1.0,9.0,53,0.00,,---,0.00,VWS V14.01,2013-01-10 06:21:00,
2013-01-10 01:26:00,42.8,26.4,30.35,West,279,2.0,4.0,52,0.00,,---,0.00,VWS V14.01,2013-01-10 06:26:00,
2013-01-10 01:31:00,42.8,26.4,30.35,WNW,282,1.0,7.0,52,0.00,,---,0.00,VWS V14.01,2013-01-10 06:31:00,
2013-01-10 01:36:00,42.8,26.4,30.35,WSW,244,7.0,10.0,52,0.00,,---,0.00,VWS V14.01,2013-01-10 06:36:00,
2013-01-10 01:41:00,42.6,25.8,30.35,WNW,290,6.0,11.0,51,0.00,,---,0.00,VWS V14.01,2013-01-10 06:41:00,
2013-01-10 01:46:00,42.6,25.8,30.35,West,261,3.0,5.0,51,0.00,,---,0.00,VWS V14.01,2013-01-10 06:46:00,
2013-01-10 01:51:00,42.6,25.8,30.35,West,263,3.0,6.0,51,0.00,,---,0.00,VWS V14.01,2013-01-10 06:51:00,
2013-01-10 01:56:00,42.5,25.7,30.35,West,279,0.0,3.0,51,0.00,,---,0.00,VWS V14.01,2013-01-10 06:56:00,
2013-01-10 02:01:00,42.5,25.7,30.36,North,360,0.0,0.0,51,0.00,,---,0.00,VWS V14.01,2013-01-10 07:01:00,
2013-01-10 02:06:00,42.3,25.0,30.36,WNW,296,0.0,7.0,50,0.00,,---,0.00,VWS V14.01,2013-01-10 07:06:00,
2013-01-10 02:11:00,42.3,25.0,30.36,West,279,2.0,2.0,50,0.00,,---,0.00,VWS V14.01,2013-01-10 07:11:00,
2013-01-10 02:16:00,42.3,25.0,30.36,West,268,0.0,0.0,50,0.00,,---,0.00,VWS V14.01,2013-01-10 07:16:00,
2013-01-10 02:21:00,42.2,25.4,30.36,West,260,0.0,0.0,51,0.00,,---,0.00,VWS V14.01,2013-01-10 07:21:00,
2013-01-10 02:26:00,42.1,24.8,30.36,WNW,302,0.0,0.0,50,0.00,,---,0.00,VWS V14.01,2013-01-10 07:26:00,
2013-01-10 02:31:00,41.9,24.6,30.38,West,265,5.0,5.0,50,0.00,,---,0.00,VWS V14.01,2013-01-10 07:31:00,
2013-01-10 02:36:00,41.9,24.6,30.38,West,263,2.0,4.0,50,0.00,,---,0.00,VWS V14.01,2013-01-10 07:36:00,
2013-01-10 02:41:00,41.9,24.6,30.38,WNW,282,4.0,7.0,50,0.00,,---,0.00,VWS V14.01,2013-01-10 07:41:00,
2013-01-10 02:46:00,41.9,24.6,30.38,West,281,0.0,0.0,50,0.00,,---,0.00,VWS V14.01,2013-01-10 07:46:00,
2013-01-10 02:51:00,41.8,24.5,30.38,WNW,290,11.0,17.0,50,0.00,,---,0.00,VWS V14.01,2013-01-10 07:51:00,
2013-01-10 02:56:00,41.9,24.6,30.38,WNW,292,0.0,3.0,50,0.00,,---,0.00,VWS V14.01,2013-01-10 07:56:00,
2013-01-10 03:01:00,41.8,24.5,30.39,West,260,0.0,5.0,50,0.00,,---,0.00,VWS V14.01,2013-01-10 08:01:00,
2013-01-10 03:06:00,41.5,24.7,30.39,West,273,0.0,0.0,51,0.00,,---,0.00,VWS V14.01,2013-01-10 08:06:00,
2013-01-10 03:11:00,41.3,24.5,30.39,West,281,4.0,5.0,51,0.00,,---,0.00,VWS V14.01,2013-01-10 08:11:00,
2013-01-10 03:16:00,41.2,24.5,30.39,West,271,4.0,5.0,51,0.00,,---,0.00,VWS V14.01,2013-01-10 08:16:00,
2013-01-10 03:21:00,41.1,24.4,30.39,West,273,0.0,3.0,51,0.00,,---,0.00,VWS V14.01,2013-01-10 08:21:00,
2013-01-10 03:26:00,40.9,24.6,30.39,West,261,0.0,7.0,52,0.00,,---,0.00,VWS V14.01,2013-01-10 08:26:00,
2013-01-10 03:31:00,40.8,24.1,30.39,West,276,0.0,4.0,51,0.00,,---,0.00,VWS V14.01,2013-01-10 08:31:00,
2013-01-10 03:36:00,40.6,24.4,30.39,West,267,4.0,4.0,52,0.00,,---,0.00,VWS V14.01,2013-01-10 08:36:00,
2013-01-10 03:41:00,40.6,24.4,30.39,NNW,341,0.0,4.0,52,0.00,,---,0.00,VWS V14.01,2013-01-10 08:41:00,
2013-01-10 03:46:00,40.6,24.4,30.39,NW,309,0.0,2.0,52,0.00,,---,0.00,VWS V14.01,2013-01-10 08:46:00,
2013-01-10 03:51:00,40.6,24.4,30.39,WNW,290,4.0,10.0,52,0.00,,---,0.00,VWS V14.01,2013-01-10 08:51:00,
2013-01-10 03:56:00,40.6,24.4,30.39,West,272,3.0,4.0,52,0.00,,---,0.00,VWS V14.01,2013-01-10 08:56:00,
2013-01-10 04:01:00,40.5,24.3,30.39,NW,304,5.0,6.0,52,0.00,,---,0.00,VWS V14.01,2013-01-10 09:01:00,
2013-01-10 04:06:00,40.5,24.7,30.39,NW,314,6.0,10.0,53,0.00,,---,0.00,VWS V14.01,2013-01-10 09:06:00,
2013-01-10 04:11:00,40.3,24.5,30.39,West,280,2.0,4.0,53,0.00,,---,0.00,VWS V14.01,2013-01-10 09:11:00,
2013-01-10 04:16:00,40.2,24.5,30.39,NW,308,0.0,5.0,53,0.00,,---,0.00,VWS V14.01,2013-01-10 09:16:00,
2013-01-10 04:21:00,40.2,24.5,30.39,NW,304,0.0,0.0,53,0.00,,---,0.00,VWS V14.01,2013-01-10 09:21:00,
2013-01-10 04:26:00,40.2,24.9,30.39,NW,310,2.0,3.0,54,0.00,,---,0.00,VWS V14.01,2013-01-10 09:26:00,
2013-01-10 04:31:00,40.1,24.8,30.39,NW,322,0.0,0.0,54,0.00,,---,0.00,VWS V14.01,2013-01-10 09:31:00,
2013-01-10 04:36:00,39.9,24.6,30.39,NW,321,3.0,4.0,54,0.00,,---,0.00,VWS V14.01,2013-01-10 09:36:00,
2013-01-10 04:41:00,39.9,24.6,30.39,NW,312,1.0,3.0,54,0.00,,---,0.00,VWS V14.01,2013-01-10 09:41:00,
2013-01-10 04:46:00,39.8,24.5,30.39,West,279,2.0,2.0,54,0.00,,---,0.00,VWS V14.01,2013-01-10 09:46:00,
2013-01-10 04:51:00,39.8,24.5,30.39,NW,307,3.0,4.0,54,0.00,,---,0.00,VWS V14.01,2013-01-10 09:51:00,
2013-01-10 04:56:00,39.6,24.3,30.39,NW,323,5.0,5.0,54,0.00,,---,0.00,VWS V14.01,2013-01-10 09:56:00,
2013-01-10 05:01:00,39.6,24.3,30.38,NW,319,5.0,9.0,54,0.00,,---,0.00,VWS V14.01,2013-01-10 10:01:00,
2013-01-10 05:06:00,39.8,25.0,30.38,NW,307,3.0,6.0,55,0.00,,---,0.00,VWS V14.01,2013-01-10 10:06:00,
2013-01-10 05:11:00,39.6,24.8,30.38,North,5,2.0,9.0,55,0.00,,---,0.00,VWS V14.01,2013-01-10 10:11:00,
2013-01-10 05:16:00,39.6,24.8,30.39,NW,320,0.0,4.0,55,0.00,,---,0.00,VWS V14.01,2013-01-10 10:16:00,
2013-01-10 05:21:00,39.6,24.8,30.39,NW,307,0.0,0.0,55,0.00,,---,0.00,VWS V14.01,2013-01-10 10:21:00,
2013-01-10 05:26:00,39.5,24.7,30.39,NW,307,0.0,0.0,55,0.00,,---,0.00,VWS V14.01,2013-01-10 10:26:00,
2013-01-10 05:31:00,39.3,24.9,30.40,North,5,0.0,5.0,56,0.00,,---,0.00,VWS V14.01,2013-01-10 10:31:00,
2013-01-10 05:36:00,39.1,24.7,30.40,NW,323,4.0,5.0,56,0.00,,---,0.00,VWS V14.01,2013-01-10 10:36:00,
2013-01-10 05:41:00,39.1,25.2,30.40,NW,310,0.0,6.0,57,0.00,,---,0.00,VWS V14.01,2013-01-10 10:41:00,
2013-01-10 05:46:00,39.1,25.2,30.41,NNW,339,0.0,0.0,57,0.00,,---,0.00,VWS V14.01,2013-01-10 10:46:00,
2013-01-10 05:51:00,38.9,25.0,30.41,NW,304,0.0,0.0,57,0.00,,---,0.00,VWS V14.01,2013-01-10 10:51:00,
2013-01-10 05:56:00,38.9,25.0,30.41,WNW,297,0.0,0.0,57,0.00,,---,0.00,VWS V14.01,2013-01-10 10:56:00,
2013-01-10 06:01:00,38.8,24.9,30.42,WNW,297,0.0,0.0,57,0.00,,---,0.00,VWS V14.01,2013-01-10 11:01:00,
2013-01-10 06:06:00,38.6,25.1,30.42,WNW,298,0.0,0.0,58,0.00,,---,0.00,VWS V14.01,2013-01-10 11:06:00,
2013-01-10 06:11:00,38.5,25.0,30.42,WNW,295,0.0,3.0,58,0.00,,---,0.00,VWS V14.01,2013-01-10 11:11:00,
2013-01-10 06:16:00,38.5,25.0,30.42,NNW,339,0.0,1.0,58,0.00,,---,0.00,VWS V14.01,2013-01-10 11:16:00,
2013-01-10 06:21:00,38.5,25.0,30.42,NW,323,0.0,4.0,58,0.00,,---,0.00,VWS V14.01,2013-01-10 11:21:00,
2013-01-10 06:26:00,38.5,25.0,30.42,North,360,4.0,4.0,58,0.00,,---,0.00,VWS V14.01,2013-01-10 11:26:00,
2013-01-10 06:31:00,38.5,25.4,30.42,North,355,3.0,4.0,59,0.00,,---,0.00,VWS V14.01,2013-01-10 11:31:00,
2013-01-10 06:36:00,38.3,25.2,30.42,NNW,329,0.0,0.0,59,0.00,,---,0.00,VWS V14.01,2013-01-10 11:36:00,
2013-01-10 06:41:00,38.2,25.1,30.42,NNW,339,0.0,0.0,59,0.00,,---,0.00,VWS V14.01,2013-01-10 11:41:00,
2013-01-10 06:46:00,38.2,25.1,30.44,NNW,339,0.0,0.0,59,0.00,,---,0.00,VWS V14.01,2013-01-10 11:46:00,
2013-01-10 06:51:00,38.0,25.4,30.44,NNW,346,0.0,4.0,60,0.00,,---,0.00,VWS V14.01,2013-01-10 11:51:00,
2013-01-10 06:56:00,38.0,25.4,30.44,NW,311,5.0,5.0,60,0.00,,---,0.00,VWS V14.01,2013-01-10 11:56:00,
2013-01-10 07:01:00,37.9,25.3,30.45,NW,315,0.0,0.0,60,0.00,,---,0.00,VWS V14.01,2013-01-10 12:01:00,
2013-01-10 07:06:00,37.9,25.7,30.45,NW,323,3.0,6.0,61,0.00,,---,0.00,VWS V14.01,2013-01-10 12:06:00,
2013-01-10 07:11:00,37.8,25.6,30.45,NW,309,3.0,4.0,61,0.00,,---,0.00,VWS V14.01,2013-01-10 12:11:00,
2013-01-10 07:16:00,37.8,25.6,30.45,NW,316,1.0,2.0,61,0.00,,---,0.00,VWS V14.01,2013-01-10 12:16:00,
2013-01-10 07:21:00,37.8,25.6,30.45,NNE,20,5.0,5.0,61,0.00,,---,0.00,VWS V14.01,2013-01-10 12:21:00,
2013-01-10 07:26:00,37.8,25.6,30.45,WNW,298,0.0,4.0,61,0.00,,---,0.00,VWS V14.01,2013-01-10 12:26:00,
2013-01-10 07:31:00,37.6,25.4,30.46,NNW,327,2.0,6.0,61,0.00,,---,0.00,VWS V14.01,2013-01-10 12:31:00,
2013-01-10 07:36:00,37.6,25.8,30.46,North,11,7.0,7.0,62,0.00,,---,0.00,VWS V14.01,2013-01-10 12:36:00,
2013-01-10 07:41:00,37.5,25.7,30.46,NW,324,6.0,6.0,62,0.00,,---,0.00,VWS V14.01,2013-01-10 12:41:00,
2013-01-10 07:46:00,37.5,25.7,30.47,NNW,333,3.0,5.0,62,0.00,,---,0.00,VWS V14.01,2013-01-10 12:46:00,
2013-01-10 07:51:00,37.5,25.7,30.47,NW,316,2.0,3.0,62,0.00,,---,0.00,VWS V14.01,2013-01-10 12:51:00,
2013-01-10 07:56:00,37.5,25.7,30.47,NW,320,4.0,7.0,62,0.00,,---,0.00,VWS V14.01,2013-01-10 12:56:00,
2013-01-10 08:01:00,37.3,25.9,30.47,WNW,300,5.0,6.0,63,0.00,,---,0.00,VWS V14.01,2013-01-10 13:01:00,
2013-01-10 08:06:00,37.3,25.9,30.47,North,350,0.0,3.0,63,0.00,,---,0.00,VWS V14.01,2013-01-10 13:06:00,
2013-01-10 08:11:00,37.3,25.9,30.47,NNE,13,0.0,4.0,63,0.00,,---,0.00,VWS V14.01,2013-01-10 13:11:00,
2013-01-10 08:16:00,37.3,26.3,30.47,WNW,298,3.0,5.0,64,0.00,,---,0.00,VWS V14.01,2013-01-10 13:16:00,
2013-01-10 08:21:00,37.5,26.1,30.47,NNW,327,3.0,4.0,63,0.00,,---,0.00,VWS V14.01,2013-01-10 13:21:00,
2013-01-10 08:26:00,37.6,26.2,30.47,NW,318,0.0,3.0,63,0.00,,---,0.00,VWS V14.01,2013-01-10 13:26:00,
2013-01-10 08:31:00,37.6,26.2,30.48,North,350,1.0,2.0,63,0.00,,---,0.00,VWS V14.01,2013-01-10 13:31:00,
2013-01-10 08:36:00,37.6,26.5,30.48,NW,320,2.0,5.0,64,0.00,,---,0.00,VWS V14.01,2013-01-10 13:36:00,
2013-01-10 08:41:00,37.6,26.5,30.48,NNW,346,4.0,6.0,64,0.00,,---,0.00,VWS V14.01,2013-01-10 13:41:00,
2013-01-10 08:46:00,37.8,26.4,30.49,NW,314,5.0,6.0,63,0.00,,---,0.00,VWS V14.01,2013-01-10 13:46:00,
2013-01-10 08:51:00,37.6,26.5,30.49,NW,318,5.0,5.0,64,0.00,,---,0.00,VWS V14.01,2013-01-10 13:51:00,
2013-01-10 08:56:00,37.6,26.5,30.49,NW,313,4.0,4.0,64,0.00,,---,0.00,VWS V14.01,2013-01-10 13:56:00,
2013-01-10 09:01:00,37.5,26.5,30.50,NW,309,0.0,0.0,64,0.00,,---,0.00,VWS V14.01,2013-01-10 14:01:00,
2013-01-10 09:06:00,37.6,26.5,30.50,NW,325,2.0,4.0,64,0.00,,---,0.00,VWS V14.01,2013-01-10 14:06:00,
2013-01-10 09:11:00,37.6,26.5,30.50,WNW,298,3.0,4.0,64,0.00,,---,0.00,VWS V14.01,2013-01-10 14:11:00,
2013-01-10 09:16:00,37.9,26.8,30.51,WNW,282,4.0,4.0,64,0.00,,---,0.00,VWS V14.01,2013-01-10 14:16:00,
2013-01-10 09:21:00,38.3,27.2,30.51,West,281,0.0,0.0,64,0.00,,---,0.00,VWS V14.01,2013-01-10 14:21:00,
2013-01-10 09:26:00,38.8,26.5,30.51,NW,311,0.0,4.0,61,0.00,,---,0.00,VWS V14.01,2013-01-10 14:26:00,
2013-01-10 09:31:00,39.3,27.4,30.52,NW,316,0.0,0.0,62,0.00,,---,0.00,VWS V14.01,2013-01-10 14:31:00,
2013-01-10 09:36:00,39.1,27.2,30.52,WNW,303,0.0,0.0,62,0.00,,---,0.00,VWS V14.01,2013-01-10 14:36:00,
2013-01-10 09:41:00,38.9,26.6,30.52,NNW,329,0.0,0.0,61,0.00,,---,0.00,VWS V14.01,2013-01-10 14:41:00,
2013-01-10 09:46:00,39.2,26.9,30.52,NNW,330,0.0,0.0,61,0.00,,---,0.00,VWS V14.01,2013-01-10 14:46:00,
2013-01-10 09:51:00,39.3,27.0,30.52,NNW,331,0.0,0.0,61,0.00,,---,0.00,VWS V14.01,2013-01-10 14:51:00,
2013-01-10 09:56:00,39.8,27.1,30.52,NNW,336,0.0,0.0,60,0.00,,---,0.00,VWS V14.01,2013-01-10 14:56:00,
2013-01-10 10:01:00,40.2,26.6,30.54,NNW,340,0.0,2.0,58,0.00,,---,0.00,VWS V14.01,2013-01-10 15:01:00,
2013-01-10 10:06:00,40.2,27.0,30.54,NNW,341,0.0,0.0,59,0.00,,---,0.00,VWS V14.01,2013-01-10 15:06:00,
2013-01-10 10:11:00,39.6,26.9,30.54,West,281,0.0,2.0,60,0.00,,---,0.00,VWS V14.01,2013-01-10 15:11:00,
2013-01-10 10:16:00,39.9,26.8,30.54,West,281,0.0,0.0,59,0.00,,---,0.00,VWS V14.01,2013-01-10 15:16:00,
2013-01-10 10:21:00,40.1,26.1,30.54,NW,319,4.0,4.0,57,0.00,,---,0.00,VWS V14.01,2013-01-10 15:21:00,
2013-01-10 10:26:00,39.9,26.8,30.54,West,278,0.0,0.0,59,0.00,,---,0.00,VWS V14.01,2013-01-10 15:26:00,
2013-01-10 10:31:00,40.2,26.2,30.54,North,355,0.0,0.0,57,0.00,,---,0.00,VWS V14.01,2013-01-10 15:31:00,
2013-01-10 10:36:00,40.3,26.7,30.54,NNW,342,0.0,0.0,58,0.00,,---,0.00,VWS V14.01,2013-01-10 15:36:00,
2013-01-10 10:41:00,40.2,27.4,30.54,West,281,4.0,5.0,60,0.00,,---,0.00,VWS V14.01,2013-01-10 15:41:00,
2013-01-10 10:46:00,39.8,27.1,30.54,West,272,6.0,6.0,60,0.00,,---,0.00,VWS V14.01,2013-01-10 15:46:00,
2013-01-10 10:51:00,39.8,27.5,30.54,West,279,5.0,5.0,61,0.00,,---,0.00,VWS V14.01,2013-01-10 15:51:00,
2013-01-10 10:56:00,40.1,26.5,30.54,NW,311,0.0,3.0,58,0.00,,---,0.00,VWS V14.01,2013-01-10 15:56:00,
2013-01-10 11:01:00,40.1,27.4,30.53,WNW,290,4.0,5.0,60,0.00,,---,0.00,VWS V14.01,2013-01-10 16:01:00,
2013-01-10 11:06:00,40.2,27.0,30.53,West,277,4.0,7.0,59,0.00,,---,0.00,VWS V14.01,2013-01-10 16:06:00,
2013-01-10 11:11:00,40.5,26.5,30.53,NW,317,0.0,5.0,57,0.00,,---,0.00,VWS V14.01,2013-01-10 16:11:00,
2013-01-10 11:16:00,40.8,26.8,30.52,NW,315,0.0,3.0,57,0.00,,---,0.00,VWS V14.01,2013-01-10 16:16:00,
2013-01-10 11:21:00,40.9,26.9,30.52,West,277,5.0,5.0,57,0.00,,---,0.00,VWS V14.01,2013-01-10 16:21:00,
2013-01-10 11:26:00,41.2,27.1,30.52,WNW,287,4.0,4.0,57,0.00,,---,0.00,VWS V14.01,2013-01-10 16:26:00,
2013-01-10 11:31:00,41.2,26.7,30.51,WNW,283,4.0,6.0,56,0.00,,---,0.00,VWS V14.01,2013-01-10 16:31:00,
2013-01-10 11:36:00,41.1,26.6,30.51,NW,310,0.0,3.0,56,0.00,,---,0.00,VWS V14.01,2013-01-10 16:36:00,
2013-01-10 11:41:00,41.2,27.1,30.51,NW,304,0.0,0.0,57,0.00,,---,0.00,VWS V14.01,2013-01-10 16:41:00,
2013-01-10 11:46:00,41.1,27.0,30.50,West,281,3.0,5.0,57,0.00,,---,0.00,VWS V14.01,2013-01-10 16:46:00,
2013-01-10 11:51:00,41.3,26.4,30.50,WNW,292,2.0,3.0,55,0.00,,---,0.00,VWS V14.01,2013-01-10 16:51:00,
2013-01-10 11:56:00,41.8,26.4,30.50,NNW,344,0.0,0.0,54,0.00,,---,0.00,VWS V14.01,2013-01-10 16:56:00,
2013-01-10 12:01:00,41.8,27.3,30.50,WNW,284,3.0,6.0,56,0.00,,---,0.00,VWS V14.01,2013-01-10 17:01:00,
2013-01-10 12:06:00,41.8,27.7,30.50,West,269,0.0,1.0,57,0.00,,---,0.00,VWS V14.01,2013-01-10 17:06:00,
2013-01-10 12:11:00,41.9,27.4,30.50,West,279,1.0,2.0,56,0.00,,---,0.00,VWS V14.01,2013-01-10 17:11:00,
2013-01-10 12:16:00,42.3,26.4,30.49,NNW,342,0.0,0.0,53,0.00,,---,0.00,VWS V14.01,2013-01-10 17:16:00,
2013-01-10 12:20:00,42.8,27.3,30.49,NNW,342,0.0,3.0,54,0.00,,---,0.00,VWS V14.01,2013-01-10 17:20:00,
2013-01-10 12:26:00,42.5,27.0,30.49,WNW,301,1.0,4.0,54,0.00,,---,0.00,VWS V14.01,2013-01-10 17:26:00,
2013-01-10 12:31:00,41.8,26.8,30.49,West,274,3.0,4.0,55,0.00,,---,0.00,VWS V14.01,2013-01-10 17:31:00,
2013-01-10 12:36:00,42.3,28.2,30.49,West,279,0.0,0.0,57,0.00,,---,0.00,VWS V14.01,2013-01-10 17:36:00,
2013-01-10 12:41:00,42.9,27.9,30.49,WNW,289,0.0,0.0,55,0.00,,---,0.00,VWS V14.01,2013-01-10 17:41:00,
2013-01-10 12:46:00,42.6,26.7,30.49,West,272,4.0,5.0,53,0.00,,---,0.00,VWS V14.01,2013-01-10 17:46:00,
2013-01-10 12:51:00,42.8,26.9,30.49,WNW,301,2.0,3.0,53,0.00,,---,0.00,VWS V14.01,2013-01-10 17:51:00,
2013-01-10 12:56:00,43.1,26.7,30.49,NW,311,0.0,0.0,52,0.00,,---,0.00,VWS V14.01,2013-01-10 17:56:00,
2013-01-10 13:01:00,43.8,27.3,30.47,NW,315,1.0,3.0,52,0.00,,---,0.00,VWS V14.01,2013-01-10 18:01:00,
2013-01-10 13:06:00,43.3,26.4,30.47,WNW,286,0.0,0.0,51,0.00,,---,0.00,VWS V14.01,2013-01-10 18:06:00,
2013-01-10 13:11:00,43.5,26.6,30.47,NW,308,3.0,3.0,51,0.00,,---,0.00,VWS V14.01,2013-01-10 18:11:00,
2013-01-10 13:16:00,43.5,26.6,30.48,NW,305,0.0,0.0,51,0.00,,---,0.00,VWS V14.01,2013-01-10 18:16:00,
2013-01-10 13:21:00,43.6,26.2,30.48,NW,312,0.0,0.0,50,0.00,,---,0.00,VWS V14.01,2013-01-10 18:21:00,
2013-01-10 13:26:00,43.8,26.9,30.48,North,351,1.0,5.0,51,0.00,,---,0.00,VWS V14.01,2013-01-10 18:26:00,
2013-01-10 13:31:00,44.1,27.6,30.47,NNW,341,1.0,3.0,52,0.00,,---,0.00,VWS V14.01,2013-01-10 18:31:00,
2013-01-10 13:35:00,43.9,28.4,30.47,West,263,0.0,0.0,54,0.00,,---,0.00,VWS V14.01,2013-01-10 18:35:00,
2013-01-10 13:41:00,44.2,28.2,30.47,NW,308,3.0,5.0,53,0.00,,---,0.00,VWS V14.01,2013-01-10 18:41:00,
2013-01-10 13:46:00,43.9,27.4,30.47,NW,309,0.0,0.0,52,0.00,,---,0.00,VWS V14.01,2013-01-10 18:46:00,
2013-01-10 13:51:00,43.8,27.3,30.47,West,276,0.0,1.0,52,0.00,,---,0.00,VWS V14.01,2013-01-10 18:51:00,
2013-01-10 13:55:00,43.5,27.5,30.47,SW,235,4.0,5.0,53,0.00,,---,0.00,VWS V14.01,2013-01-10 18:55:00,
2013-01-10 14:00:00,43.1,27.6,30.47,WNW,283,0.0,0.0,54,0.00,,---,0.00,VWS V14.01,2013-01-10 19:00:00,
2013-01-10 14:05:00,44.1,27.6,30.47,WNW,298,4.0,4.0,52,0.00,,---,0.00,VWS V14.01,2013-01-10 19:05:00,
2013-01-10 14:10:00,44.2,27.2,30.47,WNW,293,3.0,3.0,51,0.00,,---,0.00,VWS V14.01,2013-01-10 19:10:00,
2013-01-10 14:15:00,44.1,27.6,30.47,WNW,291,1.0,2.0,52,0.00,,---,0.00,VWS V14.01,2013-01-10 19:15:00,
2013-01-10 14:20:00,44.9,27.9,30.47,North,5,3.0,7.0,51,0.00,,---,0.00,VWS V14.01,2013-01-10 19:20:00,
2013-01-10 14:25:00,45.2,27.7,30.47,NW,317,0.0,0.0,50,0.00,,---,0.00,VWS V14.01,2013-01-10 19:25:00,
2013-01-10 14:30:00,45.2,27.7,30.46,NW,311,0.0,0.0,50,0.00,,---,0.00,VWS V14.01,2013-01-10 19:30:00,
2013-01-10 14:35:00,45.2,27.7,30.46,NW,307,0.0,0.0,50,0.00,,---,0.00,VWS V14.01,2013-01-10 19:35:00,
2013-01-10 14:40:00,45.1,28.1,30.46,WNW,300,2.0,2.0,51,0.00,,---,0.00,VWS V14.01,2013-01-10 19:40:00,
2013-01-10 14:45:00,44.9,27.4,30.46,West,269,0.0,0.0,50,0.00,,---,0.00,VWS V14.01,2013-01-10 19:45:00,
2013-01-10 14:50:00,45.5,27.5,30.46,West,269,0.0,0.0,49,0.00,,---,0.00,VWS V14.01,2013-01-10 19:50:00,
2013-01-10 14:55:00,45.4,26.4,30.46,West,270,0.0,0.0,47,0.00,,---,0.00,VWS V14.01,2013-01-10 19:55:00,
2013-01-10 15:00:00,45.8,26.7,30.46,North,360,3.0,5.0,47,0.00,,---,0.00,VWS V14.01,2013-01-10 20:00:00,
2013-01-10 15:05:00,45.5,27.5,30.46,North,350,2.0,2.0,49,0.00,,---,0.00,VWS V14.01,2013-01-10 20:05:00,
2013-01-10 15:10:00,45.1,27.1,30.46,NW,321,0.0,1.0,49,0.00,,---,0.00,VWS V14.01,2013-01-10 20:10:00,
2013-01-10 15:15:00,45.4,26.9,30.45,NW,321,1.0,3.0,48,0.00,,---,0.00,VWS V14.01,2013-01-10 20:15:00,
2013-01-10 15:20:00,45.2,26.7,30.45,NW,321,0.0,0.0,48,0.00,,---,0.00,VWS V14.01,2013-01-10 20:20:00,
2013-01-10 15:25:00,45.1,26.1,30.45,NW,322,1.0,2.0,47,0.00,,---,0.00,VWS V14.01,2013-01-10 20:25:00,
2013-01-10 15:30:00,44.8,26.8,30.46,NW,322,0.0,0.0,49,0.00,,---,0.00,VWS V14.01,2013-01-10 20:30:00,
2013-01-10 15:35:00,44.6,27.1,30.46,NW,322,0.0,0.0,50,0.00,,---,0.00,VWS V14.01,2013-01-10 20:35:00,
2013-01-10 15:40:00,44.3,26.4,30.46,NW,322,0.0,0.0,49,0.00,,---,0.00,VWS V14.01,2013-01-10 20:40:00,
2013-01-10 15:45:00,43.9,27.0,30.46,NW,322,1.0,2.0,51,0.00,,---,0.00,VWS V14.01,2013-01-10 20:45:00,
2013-01-10 15:50:00,43.8,25.4,30.46,NW,322,0.0,0.0,48,0.00,,---,0.00,VWS V14.01,2013-01-10 20:50:00,
2013-01-10 15:55:00,43.9,26.0,30.46,NW,322,0.0,0.0,49,0.00,,---,0.00,VWS V14.01,2013-01-10 20:55:00,
2013-01-10 16:00:00,43.5,26.1,30.46,NW,323,0.0,0.0,50,0.00,,---,0.00,VWS V14.01,2013-01-10 21:00:00,
2013-01-10 16:05:00,43.8,26.4,30.46,NW,325,0.0,0.0,50,0.00,,---,0.00,VWS V14.01,2013-01-10 21:05:00,
2013-01-10 16:10:00,43.8,26.4,30.46,NW,325,0.0,0.0,50,0.00,,---,0.00,VWS V14.01,2013-01-10 21:10:00,
2013-01-10 16:15:00,43.8,25.9,30.46,NW,325,0.0,0.0,49,0.00,,---,0.00,VWS V14.01,2013-01-10 21:15:00,
2013-01-10 16:20:00,43.5,26.1,30.46,NW,325,0.0,0.0,50,0.00,,---,0.00,VWS V14.01,2013-01-10 21:20:00,
2013-01-10 16:25:00,43.5,26.6,30.46,NW,325,0.0,0.0,51,0.00,,---,0.00,VWS V14.01,2013-01-10 21:25:00,
2013-01-10 16:30:00,42.9,27.0,30.46,NW,325,0.0,0.0,53,0.00,,---,0.00,VWS V14.01,2013-01-10 21:30:00,
2013-01-10 16:35:00,41.3,27.6,30.46,NW,325,0.0,0.0,58,0.00,,---,0.00,VWS V14.01,2013-01-10 21:35:00,
2013-01-10 16:40:00,41.3,27.2,30.46,NW,325,0.0,0.0,57,0.00,,---,0.00,VWS V14.01,2013-01-10 21:40:00,
2013-01-10 16:45:00,41.8,26.8,30.45,NW,325,1.0,2.0,55,0.00,,---,0.00,VWS V14.01,2013-01-10 21:45:00,
2013-01-10 16:50:00,40.6,28.2,30.45,NW,325,0.0,0.0,61,0.00,,---,0.00,VWS V14.01,2013-01-10 21:50:00,
2013-01-10 16:55:00,40.5,27.3,30.45,NW,325,0.0,0.0,59,0.00,,---,0.00,VWS V14.01,2013-01-10 21:55:00,
2013-01-10 17:00:00,41.6,27.1,30.45,NW,325,0.0,0.0,56,0.00,,---,0.00,VWS V14.01,2013-01-10 22:00:00,
2013-01-10 17:05:00,39.9,28.7,30.45,NW,325,0.0,0.0,64,0.00,,---,0.00,VWS V14.01,2013-01-10 22:05:00,
2013-01-10 17:10:00,39.2,28.1,30.45,NW,325,0.0,0.0,64,0.00,,---,0.00,VWS V14.01,2013-01-10 22:10:00,
2013-01-10 17:15:00,40.1,26.5,30.45,NW,325,0.0,1.0,58,0.00,,---,0.00,VWS V14.01,2013-01-10 22:15:00,
2013-01-10 17:20:00,39.6,27.7,30.45,NW,325,0.0,0.0,62,0.00,,---,0.00,VWS V14.01,2013-01-10 22:20:00,
2013-01-10 17:25:00,40.2,27.0,30.45,NW,325,2.0,2.0,59,0.00,,---,0.00,VWS V14.01,2013-01-10 22:25:00,
2013-01-10 17:30:00,38.8,28.4,30.44,NW,326,3.0,3.0,66,0.00,,---,0.00,VWS V14.01,2013-01-10 22:30:00,
2013-01-10 17:35:00,38.9,28.1,30.44,NNW,348,0.0,0.0,65,0.00,,---,0.00,VWS V14.01,2013-01-10 22:35:00,
2013-01-10 17:40:00,40.1,26.9,30.44,NNW,348,0.0,0.0,59,0.00,,---,0.00,VWS V14.01,2013-01-10 22:40:00,
2013-01-10 17:45:00,38.3,29.0,30.44,NNW,348,0.0,0.0,69,0.00,,---,0.00,VWS V14.01,2013-01-10 22:45:00,
2013-01-10 17:50:00,38.3,28.3,30.44,NNW,348,0.0,0.0,67,0.00,,---,0.00,VWS V14.01,2013-01-10 22:50:00,
2013-01-10 17:55:00,38.8,27.7,30.44,NNW,348,0.0,0.0,64,0.00,,---,0.00,VWS V14.01,2013-01-10 22:55:00,
2013-01-10 18:00:00,39.6,26.9,30.44,NNW,348,0.0,0.0,60,0.00,,---,0.00,VWS V14.01,2013-01-10 23:00:00,
2013-01-10 18:05:00,39.6,27.7,30.44,North,355,1.0,2.0,62,0.00,,---,0.00,VWS V14.01,2013-01-10 23:05:00,
2013-01-10 18:10:00,39.6,27.7,30.44,North,355,1.0,1.0,62,0.00,,---,0.00,VWS V14.01,2013-01-10 23:10:00,
2013-01-10 18:15:00,39.8,27.9,30.45,North,355,0.0,0.0,62,0.00,,---,0.00,VWS V14.01,2013-01-10 23:15:00,
2013-01-10 18:20:00,40.1,26.5,30.45,ESE,121,1.0,2.0,58,0.00,,---,0.00,VWS V14.01,2013-01-10 23:20:00,
2013-01-10 18:25:00,40.5,27.7,30.45,ESE,121,0.0,0.0,60,0.00,,---,0.00,VWS V14.01,2013-01-10 23:25:00,
2013-01-10 18:30:00,39.9,27.6,30.46,ESE,121,3.0,3.0,61,0.00,,---,0.00,VWS V14.01,2013-01-10 23:30:00,
2013-01-10 18:35:00,39.5,28.0,30.46,ESE,102,2.0,4.0,63,0.00,,---,0.00,VWS V14.01,2013-01-10 23:35:00,
2013-01-10 18:40:00,40.1,26.5,30.46,East,90,0.0,0.0,58,0.00,,---,0.00,VWS V14.01,2013-01-10 23:40:00,
2013-01-10 18:45:00,40.3,26.7,30.45,East,90,1.0,2.0,58,0.00,,---,0.00,VWS V14.01,2013-01-10 23:45:00,
2013-01-10 18:50:00,40.9,25.5,30.45,East,90,1.0,2.0,54,0.00,,---,0.00,VWS V14.01,2013-01-10 23:50:00,
2013-01-10 18:55:00,41.3,25.9,30.45,East,91,0.0,1.0,54,0.00,,---,0.00,VWS V14.01,2013-01-10 23:55:00,
2013-01-10 19:00:00,41.1,26.2,30.46,East,91,0.0,0.0,55,0.00,,---,0.00,VWS V14.01,2013-01-11 00:00:00,
2013-01-10 19:05:00,41.1,26.2,30.46,East,91,0.0,0.0,55,0.00,,---,0.00,VWS V14.01,2013-01-11 00:05:00,
2013-01-10 19:10:00,41.2,26.7,30.46,ESE,104,2.0,2.0,56,0.00,,---,0.00,VWS V14.01,2013-01-11 00:10:00,
2013-01-10 19:15:00,40.8,26.3,30.46,ESE,104,0.0,0.0,56,0.00,,---,0.00,VWS V14.01,2013-01-11 00:15:00,
2013-01-10 19:20:00,40.6,26.6,30.46,ESE,104,1.0,2.0,57,0.00,,---,0.00,VWS V14.01,2013-01-11 00:20:00,
2013-01-10 19:25:00,40.9,26.4,30.46,East,101,0.0,2.0,56,0.00,,---,0.00,VWS V14.01,2013-01-11 00:25:00,
2013-01-10 19:30:00,41.1,26.2,30.46,East,98,2.0,3.0,55,0.00,,---,0.00,VWS V14.01,2013-01-11 00:30:00,
2013-01-10 19:35:00,40.5,26.5,30.46,East,96,2.0,2.0,57,0.00,,---,0.00,VWS V14.01,2013-01-11 00:35:00,
2013-01-10 19:40:00,40.3,26.7,30.46,East,86,5.0,5.0,58,0.00,,---,0.00,VWS V14.01,2013-01-11 00:40:00,
2013-01-10 19:45:00,40.6,26.1,30.44,East,98,2.0,5.0,56,0.00,,---,0.00,VWS V14.01,2013-01-11 00:45:00,
2013-01-10 19:50:00,40.6,26.1,30.44,East,86,2.0,3.0,56,0.00,,---,0.00,VWS V14.01,2013-01-11 00:50:00,
2013-01-10 19:55:00,40.8,26.3,30.44,East,92,0.0,0.0,56,0.00,,---,0.00,VWS V14.01,2013-01-11 00:55:00,
2013-01-10 20:00:00,40.8,26.3,30.44,East,94,0.0,3.0,56,0.00,,---,0.00,VWS V14.01,2013-01-11 01:00:00,
2013-01-10 20:05:00,40.5,26.5,30.44,ENE,57,2.0,3.0,57,0.00,,---,0.00,VWS V14.01,2013-01-11 01:05:00,
2013-01-10 20:10:00,40.2,26.2,30.44,East,92,2.0,3.0,57,0.00,,---,0.00,VWS V14.01,2013-01-11 01:10:00,
2013-01-10 20:15:00,40.2,26.2,30.44,East,88,0.0,3.0,57,0.00,,---,0.00,VWS V14.01,2013-01-11 01:15:00,
2013-01-10 20:20:00,40.2,26.6,30.44,ESE,107,6.0,8.0,58,0.00,,---,0.00,VWS V14.01,2013-01-11 01:20:00,
2013-01-10 20:25:00,40.2,26.2,30.44,East,80,4.0,4.0,57,0.00,,---,0.00,VWS V14.01,2013-01-11 01:25:00,
2013-01-10 20:30:00,39.9,26.3,30.44,ESE,107,7.0,7.0,58,0.00,,---,0.00,VWS V14.01,2013-01-11 01:30:00,
2013-01-10 20:36:00,39.8,26.7,30.44,East,94,6.0,7.0,59,0.00,,---,0.00,VWS V14.01,2013-01-11 01:36:00,
2013-01-10 20:41:00,39.8,26.2,30.44,ESE,117,1.0,1.0,58,0.00,,---,0.00,VWS V14.01,2013-01-11 01:41:00,
2013-01-10 20:46:00,39.8,26.7,30.45,East,90,0.0,6.0,59,0.00,,---,0.00,VWS V14.01,2013-01-11 01:46:00,
2013-01-10 20:51:00,39.6,26.5,30.45,East,101,2.0,7.0,59,0.00,,---,0.00,VWS V14.01,2013-01-11 01:51:00,
2013-01-10 20:56:00,39.5,26.8,30.45,East,93,5.0,5.0,60,0.00,,---,0.00,VWS V14.01,2013-01-11 01:56:00,
2013-01-10 21:01:00,39.3,27.0,30.44,East,98,1.0,5.0,61,0.00,,---,0.00,VWS V14.01,2013-01-11 02:01:00,
2013-01-10 21:06:00,39.5,26.8,30.44,East,91,3.0,6.0,60,0.00,,---,0.00,VWS V14.01,2013-01-11 02:06:00,
2013-01-10 21:11:00,39.5,26.4,30.44,East,83,5.0,5.0,59,0.00,,---,0.00,VWS V14.01,2013-01-11 02:11:00,
2013-01-10 21:16:00,39.6,26.5,30.44,East,93,0.0,4.0,59,0.00,,---,0.00,VWS V14.01,2013-01-11 02:16:00,
2013-01-10 21:21:00,39.5,26.8,30.44,East,101,4.0,4.0,60,0.00,,---,0.00,VWS V14.01,2013-01-11 02:21:00,
2013-01-10 21:26:00,39.6,26.5,30.44,ESE,112,0.0,3.0,59,0.00,,---,0.00,VWS V14.01,2013-01-11 02:26:00,
2013-01-10 21:31:00,39.5,26.8,30.45,ESE,109,7.0,7.0,60,0.00,,---,0.00,VWS V14.01,2013-01-11 02:31:00,
2013-01-10 21:36:00,39.3,26.2,30.45,ESE,103,4.0,6.0,59,0.00,,---,0.00,VWS V14.01,2013-01-11 02:36:00,
2013-01-10 21:41:00,39.2,26.5,30.45,East,90,2.0,3.0,60,0.00,,---,0.00,VWS V14.01,2013-01-11 02:41:00,
2013-01-10 21:46:00,39.2,26.5,30.45,East,101,3.0,5.0,60,0.00,,---,0.00,VWS V14.01,2013-01-11 02:46:00,
2013-01-10 21:51:00,39.1,26.4,30.45,ESE,104,5.0,5.0,60,0.00,,---,0.00,VWS V14.01,2013-01-11 02:51:00,
2013-01-10 21:56:00,39.1,27.2,30.45,East,92,3.0,3.0,62,0.00,,---,0.00,VWS V14.01,2013-01-11 02:56:00,
2013-01-10 22:01:00,38.8,26.9,30.45,East,93,4.0,5.0,62,0.00,,---,0.00,VWS V14.01,2013-01-11 03:01:00,
2013-01-10 22:06:00,39.1,26.8,30.45,East,91,5.0,5.0,61,0.00,,---,0.00,VWS V14.01,2013-01-11 03:06:00,
2013-01-10 22:11:00,39.2,26.5,30.45,East,93,3.0,3.0,60,0.00,,---,0.00,VWS V14.01,2013-01-11 03:11:00,
2013-01-10 22:16:00,38.9,27.0,30.44,East,84,3.0,6.0,62,0.00,,---,0.00,VWS V14.01,2013-01-11 03:16:00,
2013-01-10 22:21:00,38.9,25.0,30.44,ESE,104,3.0,5.0,57,0.00,,---,0.00,VWS V14.01,2013-01-11 03:21:00,
2013-01-10 22:26:00,38.9,26.2,30.44,ESE,103,2.0,6.0,60,0.00,,---,0.00,VWS V14.01,2013-01-11 03:26:00,
2013-01-10 22:31:00,38.9,26.2,30.44,East,96,7.0,7.0,60,0.00,,---,0.00,VWS V14.01,2013-01-11 03:31:00,
2013-01-10 22:36:00,38.9,26.6,30.44,East,88,3.0,3.0,61,0.00,,---,0.00,VWS V14.01,2013-01-11 03:36:00,
2013-01-10 22:41:00,38.6,26.7,30.44,East,80,4.0,10.0,62,0.00,,---,0.00,VWS V14.01,2013-01-11 03:41:00,
2013-01-10 22:46:00,38.9,26.2,30.43,East,101,4.0,12.0,60,0.00,,---,0.00,VWS V14.01,2013-01-11 03:46:00,
2013-01-10 22:51:00,39.1,26.4,30.43,ESE,119,0.0,2.0,60,0.00,,---,0.00,VWS V14.01,2013-01-11 03:51:00,
2013-01-10 22:56:00,39.2,26.5,30.43,ESE,121,5.0,5.0,60,0.00,,---,0.00,VWS V14.01,2013-01-11 03:56:00,
2013-01-10 23:01:00,39.1,26.4,30.43,East,86,3.0,6.0,60,0.00,,---,0.00,VWS V14.01,2013-01-11 04:01:00,
2013-01-10 23:06:00,39.1,26.4,30.43,ESE,103,7.0,9.0,60,0.00,,---,0.00,VWS V14.01,2013-01-11 04:06:00,
2013-01-10 23:11:00,39.2,26.1,30.43,East,87,6.0,7.0,59,0.00,,---,0.00,VWS V14.01,2013-01-11 04:11:00,
2013-01-10 23:16:00,39.1,26.4,30.43,East,100,6.0,11.0,60,0.00,,---,0.00,VWS V14.01,2013-01-11 04:16:00,
2013-01-10 23:21:00,39.1,26.4,30.43,East,89,3.0,9.0,60,0.00,,---,0.00,VWS V14.01,2013-01-11 04:21:00,
2013-01-10 23:26:00,39.1,26.4,30.43,SE,131,0.0,5.0,60,0.00,,---,0.00,VWS V14.01,2013-01-11 04:26:00,
2013-01-10 23:31:00,38.9,26.2,30.43,East,85,4.0,10.0,60,0.00,,---,0.00,VWS V14.01,2013-01-11 04:31:00,
2013-01-10 23:36:00,38.8,26.1,30.43,East,88,6.0,9.0,60,0.00,,---,0.00,VWS V14.01,2013-01-11 04:36:00,
2013-01-10 23:41:00,38.6,26.3,30.43,East,98,4.0,7.0,61,0.00,,---,0.00,VWS V14.01,2013-01-11 04:41:00,
2013-01-10 23:46:00,38.8,26.1,30.43,East,101,6.0,6.0,60,0.00,,---,0.00,VWS V14.01,2013-01-11 04:46:00,
2013-01-10 23:51:00,38.8,26.1,30.43,East,91,7.0,7.0,60,0.00,,---,0.00,VWS V14.01,2013-01-11 04:51:00,
2013-01-10 23:56:00,38.8,26.1,30.43,East,87,2.0,4.0,60,0.00,,---,0.00,VWS V14.01,2013-01-11 04:56:00,